createdAt,value
2024-01-04T00:02:11.312Z,75.80
2024-01-04T00:04:42.753Z,76.60
2024-01-04T00:07:12.660Z,77.00
2024-01-04T00:09:42.076Z,77.70
2024-01-04T00:12:12.998Z,77.70
2024-01-04T00:14:42.470Z,78.20
2024-01-04T00:17:12.321Z,77.90
2024-01-04T00:19:42.888Z,77.90
2024-01-04T00:22:13.437Z,78.10
2024-01-04T00:24:42.879Z,78.20
2024-01-04T00:27:12.354Z,78.00
2024-01-04T00:29:42.890Z,77.40
2024-01-04T00:32:13.283Z,77.60
2024-01-04T00:34:43.970Z,77.60
2024-01-04T00:37:13.916Z,77.50
2024-01-04T00:39:43.755Z,76.60
2024-01-04T00:42:13.233Z,76.70
2024-01-04T00:44:43.253Z,76.80
2024-01-04T00:47:13.718Z,77.60
2024-01-04T00:49:43.611Z,77.50
2024-01-04T00:52:13.511Z,77.90
2024-01-04T00:54:43.393Z,78.40
2024-01-04T00:57:13.334Z,78.50
2024-01-04T00:59:43.451Z,77.20
2024-01-04T01:02:12.880Z,77.50
2024-01-04T01:04:42.311Z,77.40
2024-01-04T01:07:11.927Z,76.60
2024-01-04T01:09:41.604Z,77.20
2024-01-04T01:12:12.198Z,77.50
2024-01-04T01:14:42.909Z,77.30
2024-01-04T01:17:12.340Z,77.30
2024-01-04T01:19:43.364Z,77.80
2024-01-04T01:22:12.975Z,77.60
2024-01-04T01:24:43.927Z,77.90
2024-01-04T01:27:13.551Z,78.00
2024-01-04T01:29:43.295Z,78.40
2024-01-04T01:32:12.912Z,78.20
2024-01-04T01:34:45.012Z,78.10
2024-01-04T01:37:14.555Z,77.80
2024-01-04T01:39:43.973Z,78.30
2024-01-04T01:42:13.491Z,79.00
2024-01-04T01:44:42.972Z,79.60
2024-01-04T01:47:12.714Z,80.10
2024-01-04T01:49:42.363Z,80.80
2024-01-04T01:52:11.981Z,80.90
2024-01-04T01:54:42.155Z,81.30
2024-01-04T01:57:12.168Z,81.70
2024-01-04T05:34:39.364Z,86.30
2024-01-04T05:37:08.924Z,86.20
2024-01-04T05:39:38.424Z,86.10
2024-01-04T05:42:08.034Z,86.00
2024-01-04T05:44:37.477Z,85.90
2024-01-04T05:47:08.690Z,85.90
2024-01-04T05:49:39.166Z,85.90
2024-01-04T05:52:09.656Z,85.20
2024-01-04T05:54:39.424Z,84.30
2024-01-04T05:57:09.870Z,83.80
2024-01-04T05:59:39.515Z,84.00
2024-01-04T06:02:08.965Z,83.50
2024-01-04T06:04:39.436Z,83.00
2024-01-04T06:07:09.369Z,83.10
2024-01-04T06:09:38.745Z,83.40
2024-01-04T06:12:09.409Z,83.60
2024-01-04T06:14:39.297Z,84.10
2024-01-04T06:17:10.472Z,84.30
2024-01-04T06:19:40.119Z,84.30
2024-01-04T06:22:10.737Z,84.50
2024-01-04T06:24:40.200Z,84.50
2024-01-04T06:27:09.671Z,84.70
2024-01-04T06:29:39.148Z,84.60
2024-01-04T07:06:59.932Z,83.50
2024-01-04T07:09:29.364Z,83.60
2024-01-04T07:11:58.831Z,83.80
2024-01-04T07:14:28.407Z,83.50
2024-01-04T07:16:57.964Z,83.50
2024-01-04T07:19:27.457Z,83.30
2024-01-04T07:21:57.133Z,83.20
2024-01-04T07:24:27.557Z,83.20
2024-01-04T07:26:56.956Z,83.00
2024-01-04T07:29:26.533Z,82.80
2024-01-04T07:31:57.539Z,82.70
2024-01-04T07:34:27.529Z,82.80
2024-01-04T07:36:56.948Z,83.00
2024-01-04T07:39:26.789Z,82.90
2024-01-04T07:41:57.402Z,83.20
2024-01-04T07:44:26.893Z,83.20
2024-01-04T07:46:57.311Z,83.10
2024-01-04T07:49:27.560Z,83.10
2024-01-04T07:51:58.317Z,83.10
2024-01-04T07:54:38.954Z,83.20
2024-01-04T07:57:15.911Z,83.20
2024-01-04T07:59:45.425Z,83.40
2024-01-04T08:02:15.116Z,83.30
2024-01-04T08:04:44.548Z,83.30
2024-01-04T08:07:14.054Z,83.20
2024-01-04T08:09:43.504Z,83.20
2024-01-04T08:12:16.468Z,83.00
2024-01-04T08:14:45.934Z,83.10
2024-01-04T08:17:15.533Z,83.20
2024-01-04T08:19:45.042Z,83.30
2024-01-04T08:22:15.615Z,83.40
2024-01-04T08:24:45.651Z,83.40
2024-01-04T08:27:15.090Z,83.60
2024-01-04T08:29:48.968Z,83.60
2024-01-04T08:32:19.389Z,83.50
2024-01-04T08:34:49.066Z,83.70
2024-01-04T08:37:21.244Z,83.80
2024-01-04T08:39:51.892Z,83.60
2024-01-04T08:42:21.573Z,83.60
2024-01-04T08:44:51.085Z,83.50
2024-01-04T08:47:20.514Z,83.50
2024-01-04T08:49:50.982Z,83.50
2024-01-04T08:52:20.921Z,83.50
2024-01-04T08:54:50.334Z,83.50
2024-01-04T08:57:19.934Z,83.60
2024-01-04T08:59:49.525Z,83.40
2024-01-04T09:02:19.094Z,83.20
2024-01-04T09:04:48.971Z,83.10
2024-01-04T09:07:18.514Z,83.00
2024-01-04T09:09:51.902Z,83.10
2024-01-04T09:12:22.707Z,83.00
2024-01-04T09:14:53.664Z,82.70
2024-01-04T09:17:24.529Z,82.70
2024-01-04T09:19:54.139Z,82.80
2024-01-04T09:22:26.161Z,82.60
2024-01-04T09:24:57.876Z,82.50
2024-01-04T09:27:29.101Z,82.40
2024-01-04T09:29:58.945Z,82.40
2024-01-04T09:32:30.306Z,82.30
2024-01-04T09:35:01.388Z,82.30
2024-01-04T09:37:31.512Z,82.20
2024-01-04T09:40:02.323Z,82.20
2024-01-04T09:42:34.239Z,82.40
2024-01-04T09:45:05.815Z,82.50
2024-01-04T11:18:24.223Z,82.90
2024-01-04T11:21:03.381Z,82.90
2024-01-04T11:23:35.675Z,83.00
2024-01-04T11:26:23.665Z,83.00
2024-01-04T11:28:54.147Z,83.10
2024-01-04T11:31:27.863Z,83.30
2024-01-04T11:33:57.824Z,83.40
2024-01-04T11:36:27.753Z,83.30
2024-01-04T11:39:00.541Z,82.60
2024-01-04T11:41:36.074Z,82.70
2024-01-04T11:44:06.917Z,82.80
2024-01-04T11:46:36.794Z,82.90
2024-01-04T11:49:07.955Z,82.90
2024-01-04T11:51:43.931Z,82.80
2024-01-04T11:54:15.264Z,82.60
2024-01-04T11:56:45.952Z,82.70
2024-01-04T11:59:16.432Z,82.80
2024-01-04T12:01:47.039Z,82.80
2024-01-04T12:04:17.665Z,82.60
2024-01-04T12:06:48.067Z,82.70
2024-01-04T12:09:20.631Z,82.80
2024-01-04T12:11:58.936Z,82.90
2024-01-04T12:14:29.017Z,82.60
2024-01-04T12:17:00.316Z,82.60
2024-01-04T13:02:55.609Z,81.70
2024-01-04T13:05:25.041Z,82.10
2024-01-04T13:07:55.236Z,81.80
2024-01-04T13:10:26.055Z,82.00
2024-01-04T13:12:55.812Z,82.00
2024-01-04T13:15:26.500Z,81.70
2024-01-04T13:17:57.181Z,82.00
2024-01-04T13:20:27.402Z,81.90
2024-01-04T13:22:58.151Z,81.70
2024-01-04T13:25:27.712Z,82.00
2024-01-04T13:27:57.508Z,82.40
2024-01-04T13:30:29.222Z,82.00
2024-01-04T13:32:58.775Z,82.20
2024-01-04T13:35:28.641Z,82.30
2024-01-04T13:37:59.101Z,82.20
2024-01-04T13:40:28.479Z,82.10
2024-01-04T13:42:58.914Z,82.10
2024-01-04T13:45:29.795Z,82.30
2024-01-04T13:47:59.787Z,82.10
2024-01-04T13:50:30.350Z,82.20
2024-01-04T13:53:01.601Z,82.40
2024-01-04T13:55:31.558Z,82.50
2024-01-04T13:58:00.994Z,82.50
2024-01-04T14:00:30.532Z,82.40
2024-01-04T14:09:27.149Z,82.40
2024-01-04T14:11:57.842Z,82.40
2024-01-04T14:14:27.749Z,82.40
2024-01-04T14:16:57.548Z,82.40
2024-01-04T14:19:27.961Z,82.30
2024-01-04T14:21:57.828Z,82.40
2024-01-04T14:24:27.319Z,82.60
2024-01-04T14:26:56.830Z,82.70
2024-01-04T14:29:26.355Z,82.70
2024-01-04T14:31:55.759Z,82.70
2024-01-04T14:34:27.367Z,82.40
2024-01-04T14:36:58.394Z,82.40
2024-01-04T14:39:28.917Z,82.70
2024-01-04T14:41:59.480Z,82.50
2024-01-04T14:44:29.393Z,82.30
2024-01-04T14:47:00.122Z,82.20
2024-01-04T14:49:29.874Z,82.10
2024-01-04T14:52:01.734Z,81.90
2024-01-04T14:54:31.600Z,82.00
2024-01-04T14:57:01.678Z,81.90
2024-01-04T14:59:31.511Z,81.90
2024-01-04T15:02:01.967Z,81.80
2024-01-04T15:04:31.425Z,81.20
2024-01-04T16:33:31.278Z,83.20
2024-01-04T16:36:01.171Z,83.00
2024-01-04T16:38:30.768Z,82.80
2024-01-04T16:41:01.085Z,82.90
2024-01-04T16:43:30.628Z,82.80
2024-01-04T16:46:00.107Z,82.90
2024-01-04T16:48:29.631Z,83.00
2024-01-04T16:50:59.677Z,82.90
2024-01-04T16:53:29.144Z,82.70
2024-01-04T16:55:58.591Z,82.80
2024-01-04T16:58:28.505Z,82.50
2024-01-04T17:00:57.945Z,82.50
2024-01-04T17:03:28.028Z,82.10
2024-01-04T17:05:57.612Z,82.00
2024-01-04T17:08:27.644Z,82.10
2024-01-04T17:10:57.075Z,82.00
2024-01-04T17:13:26.588Z,81.60
2024-01-04T17:15:56.042Z,81.90
2024-01-04T17:18:27.495Z,81.50
2024-01-04T17:20:57.384Z,81.40
2024-01-04T17:23:30.224Z,81.60
2024-01-04T17:26:01.061Z,81.90
2024-01-04T17:28:30.505Z,81.70
2024-01-04T17:31:00.467Z,81.40
2024-01-04T17:33:30.148Z,81.40
2024-01-04T17:36:16.128Z,81.50
2024-01-04T17:38:51.316Z,81.60
2024-01-04T17:41:21.236Z,81.50
2024-01-04T17:43:50.644Z,81.50
2024-01-04T17:46:20.161Z,81.40
2024-01-04T17:48:49.738Z,81.40
2024-01-04T17:51:22.193Z,81.50
2024-01-04T17:53:52.185Z,81.50
2024-01-04T17:56:22.283Z,81.20
2024-01-04T17:58:51.872Z,81.10
2024-01-04T18:01:22.004Z,81.10
2024-01-04T18:03:51.963Z,81.00
2024-01-04T18:06:21.543Z,80.80
2024-01-04T18:08:53.328Z,80.80
2024-01-04T18:11:24.049Z,80.60
2024-01-04T18:13:54.051Z,80.70
2024-01-04T18:16:24.157Z,80.60
2024-01-04T18:57:06.762Z,78.80
2024-01-04T18:59:36.204Z,79.20
2024-01-04T19:02:07.154Z,79.30
2024-01-04T19:04:37.072Z,79.20
2024-01-04T19:07:07.131Z,79.40
2024-01-04T19:09:36.556Z,79.50
2024-01-04T19:12:06.120Z,79.10
2024-01-04T19:14:35.651Z,79.40
2024-01-04T19:17:05.735Z,79.50
2024-01-04T19:19:35.656Z,79.50
2024-01-04T19:22:06.470Z,79.60
2024-01-04T19:24:35.950Z,79.50
2024-01-04T19:27:05.908Z,79.60
2024-01-04T19:29:35.709Z,79.70
2024-01-04T19:32:05.622Z,79.80
2024-01-04T19:34:36.333Z,79.70
2024-01-04T19:37:05.972Z,79.50
2024-01-04T19:39:35.849Z,79.30
2024-01-04T19:42:05.311Z,79.40
2024-01-04T19:44:36.896Z,79.50
2024-01-04T19:47:08.135Z,79.30
2024-01-04T19:49:37.867Z,79.10
2024-01-04T19:52:07.514Z,79.10
2024-01-04T19:54:37.511Z,79.30
2024-01-04T23:08:36.640Z,67.20
2024-01-04T23:11:06.235Z,67.10
2024-01-04T23:13:35.889Z,66.70
2024-01-04T23:16:06.610Z,66.40
2024-01-04T23:18:36.440Z,66.00
2024-01-04T23:21:09.243Z,67.10
2024-01-04T23:23:38.844Z,67.90
2024-01-04T23:26:08.495Z,67.10
2024-01-04T23:28:38.266Z,66.80
2024-01-04T23:31:07.829Z,66.30
2024-01-04T23:33:42.652Z,65.70
2024-01-04T23:36:13.347Z,66.30
2024-01-04T23:38:42.874Z,64.30
2024-01-04T23:41:13.468Z,64.10
2024-01-04T23:43:42.939Z,64.60
2024-01-04T23:46:12.377Z,65.50
2024-01-04T23:48:41.946Z,63.70
2024-01-04T23:51:11.779Z,64.90
2024-01-04T23:53:41.275Z,65.10
2024-01-04T23:56:10.809Z,63.20
2024-01-04T23:58:40.243Z,61.00
